createdAt,value
2023-01-17T00:00:01.534Z,0.10
2023-01-17T00:02:31.097Z,0.10
2023-01-17T00:05:17.069Z,0.10
2023-01-17T00:08:02.398Z,0.10
2023-01-17T00:10:29.245Z,0.10
2023-01-17T00:12:57.513Z,0.20
2023-01-17T00:15:25.018Z,0.00
2023-01-17T00:17:57.131Z,0.10
2023-01-17T00:20:47.442Z,0.00
2023-01-17T00:23:35.846Z,0.10
2023-01-17T00:26:05.632Z,0.00
2023-01-17T00:28:43.208Z,0.07
2023-01-17T00:31:11.631Z,0.33
2023-01-17T00:33:38.169Z,0.10
2023-01-17T00:36:06.376Z,0.00
2023-01-17T00:38:38.224Z,0.00
2023-01-17T00:41:07.656Z,0.10
2023-01-17T00:43:53.112Z,0.10
2023-01-17T00:46:38.598Z,0.00
2023-01-17T00:49:24.759Z,0.00
2023-01-17T00:52:09.615Z,0.10
2023-01-17T00:54:54.841Z,0.00
2023-01-17T00:57:40.063Z,0.10
2023-01-17T01:00:26.068Z,0.00
2023-01-17T01:03:11.094Z,0.00
2023-01-17T01:05:56.551Z,0.03
2023-01-17T01:08:47.159Z,0.10
2023-01-17T01:11:35.439Z,0.10
2023-01-17T01:14:20.783Z,0.10
2023-01-17T01:17:06.236Z,0.00
2023-01-17T01:19:51.658Z,0.00
2023-01-17T01:22:36.508Z,0.00
2023-01-17T01:25:22.587Z,0.00
2023-01-17T01:28:07.753Z,0.10
2023-01-17T01:30:52.979Z,0.10
2023-01-17T01:33:20.165Z,0.00
2023-01-17T01:35:51.918Z,0.00
2023-01-17T01:38:24.840Z,0.00
2023-01-17T01:40:54.130Z,0.07
2023-01-17T01:43:48.072Z,0.10
2023-01-17T01:46:21.662Z,0.00
2023-01-17T01:48:56.691Z,0.10
2023-01-17T01:51:30.090Z,0.00
2023-01-17T01:54:05.169Z,0.00
2023-01-17T01:56:32.486Z,0.00
2023-01-17T01:59:02.968Z,0.10
2023-01-17T02:01:31.231Z,0.07
2023-01-17T02:03:58.038Z,0.00
2023-01-17T02:06:36.212Z,0.20
2023-01-17T02:09:07.157Z,0.00
2023-01-17T02:11:36.474Z,0.00
2023-01-17T02:14:03.667Z,0.10
2023-01-17T02:17:20.038Z,0.00
2023-01-17T02:20:08.541Z,0.10
2023-01-17T02:22:50.023Z,0.10
2023-01-17T02:25:44.944Z,0.10
2023-01-17T02:28:30.269Z,0.10
2023-01-17T02:31:03.720Z,0.10
2023-01-17T02:33:52.095Z,0.03
2023-01-17T02:36:40.493Z,0.30
2023-01-17T02:39:17.840Z,0.30
2023-01-17T02:41:49.134Z,0.20
2023-01-17T02:44:19.199Z,0.10
2023-01-17T02:46:57.026Z,0.20
2023-01-17T02:49:30.508Z,0.20
2023-01-17T02:51:57.017Z,0.20
2023-01-17T02:54:48.454Z,0.10
2023-01-17T02:57:36.953Z,0.10
2023-01-17T03:00:18.625Z,0.10
2023-01-17T03:02:57.347Z,0.27
2023-01-17T03:05:29.742Z,0.17
2023-01-17T03:07:56.943Z,0.20
2023-01-17T03:10:24.351Z,0.30
2023-01-17T03:12:56.554Z,0.20
2023-01-17T03:15:23.096Z,0.17
2023-01-17T03:17:53.482Z,0.20
2023-01-17T03:20:22.546Z,0.20
2023-01-17T03:22:49.371Z,0.23
2023-01-17T03:25:19.055Z,0.20
2023-01-17T03:27:45.732Z,0.30
2023-01-17T03:30:23.325Z,0.27
2023-01-17T03:32:50.370Z,0.20
2023-01-17T03:35:17.385Z,0.27
2023-01-17T03:37:43.935Z,0.17
2023-01-17T03:40:11.023Z,0.10
2023-01-17T03:42:37.581Z,0.10
2023-01-17T03:45:04.531Z,0.10
2023-01-17T03:47:31.090Z,0.30
2023-01-17T03:49:57.645Z,0.47
2023-01-17T03:52:24.299Z,0.20
2023-01-17T03:54:50.932Z,0.10
2023-01-17T03:57:17.464Z,0.20
2023-01-17T03:59:44.022Z,0.30
2023-01-17T04:02:10.667Z,0.23
2023-01-17T04:04:37.280Z,0.20
2023-01-17T04:07:04.065Z,0.30
2023-01-17T04:09:36.513Z,0.20
2023-01-17T04:12:03.495Z,0.37
2023-01-17T04:14:30.156Z,0.40
2023-01-17T04:16:57.006Z,0.20
2023-01-17T04:19:23.817Z,0.30
2023-01-17T04:21:50.440Z,0.23
2023-01-17T04:24:18.131Z,0.20
2023-01-17T04:26:45.918Z,0.20
2023-01-17T04:29:12.449Z,0.53
2023-01-17T04:31:39.179Z,0.30
2023-01-17T04:34:05.785Z,0.30
2023-01-17T04:36:34.291Z,0.50
2023-01-17T04:39:04.075Z,0.43
2023-01-17T04:41:30.814Z,0.30
2023-01-17T04:43:57.301Z,0.33
2023-01-17T04:46:24.021Z,0.30
2023-01-17T04:48:50.620Z,0.50
2023-01-17T04:51:19.476Z,0.30
2023-01-17T04:53:46.688Z,0.43
2023-01-17T04:56:13.347Z,0.63
2023-01-17T04:58:39.933Z,0.30
2023-01-17T05:01:09.942Z,0.27
2023-01-17T05:03:36.736Z,0.30
2023-01-17T05:06:03.461Z,0.87
2023-01-17T05:08:30.400Z,0.50
2023-01-17T05:10:57.080Z,0.23
2023-01-17T05:13:23.852Z,0.73
2023-01-17T05:15:50.605Z,0.30
2023-01-17T05:18:18.893Z,0.30
2023-01-17T05:20:45.733Z,0.27
2023-01-17T05:23:12.460Z,0.40
2023-01-17T05:25:44.550Z,0.57
2023-01-17T05:28:12.837Z,0.50
2023-01-17T05:30:39.408Z,0.20
2023-01-17T05:33:06.192Z,0.73
2023-01-17T05:35:32.839Z,0.63
2023-01-17T05:38:01.962Z,0.43
2023-01-17T05:40:31.542Z,0.20
2023-01-17T05:42:59.898Z,0.53
2023-01-17T05:45:28.672Z,0.50
2023-01-17T05:47:56.476Z,0.87
2023-01-17T05:50:33.244Z,0.40
2023-01-17T05:53:11.636Z,0.60
2023-01-17T05:55:39.187Z,0.63
2023-01-17T05:58:18.132Z,0.30
2023-01-17T06:00:45.559Z,0.30
2023-01-17T06:03:13.084Z,0.23
2023-01-17T06:05:40.106Z,0.30
2023-01-17T06:08:13.526Z,0.30
2023-01-17T06:10:44.792Z,0.17
2023-01-17T06:13:15.308Z,0.40
2023-01-17T06:15:42.091Z,0.40
2023-01-17T06:18:11.254Z,0.27
2023-01-17T06:20:38.623Z,0.20
2023-01-17T06:23:09.813Z,0.20
2023-01-17T06:25:46.644Z,0.60
2023-01-17T06:28:15.839Z,0.30
2023-01-17T06:30:43.968Z,0.30
2023-01-17T06:33:13.179Z,1.53
2023-01-17T06:35:46.590Z,0.97
2023-01-17T06:38:13.142Z,0.20
2023-01-17T06:40:39.756Z,0.47
2023-01-17T06:43:06.379Z,0.30
2023-01-17T06:45:35.485Z,0.70
2023-01-17T06:48:04.280Z,0.40
2023-01-17T06:50:32.139Z,0.73
2023-01-17T06:53:02.110Z,0.30
2023-01-17T06:55:30.446Z,0.50
2023-01-17T06:58:03.239Z,0.27
2023-01-17T07:00:31.265Z,0.40
2023-01-17T07:02:58.199Z,0.60
2023-01-17T07:05:25.080Z,0.37
2023-01-17T07:07:51.676Z,0.30
2023-01-17T07:10:18.364Z,0.27
2023-01-17T07:12:44.933Z,0.30
2023-01-17T07:15:11.963Z,0.40
2023-01-17T07:17:38.938Z,0.40
2023-01-17T07:20:06.591Z,0.70
2023-01-17T07:22:33.232Z,0.20
2023-01-17T07:25:00.392Z,0.40
2023-01-17T07:27:30.489Z,0.20
2023-01-17T07:29:57.680Z,0.73
2023-01-17T07:32:26.769Z,0.23
2023-01-17T07:34:54.362Z,0.40
2023-01-17T07:37:21.152Z,0.80
2023-01-17T07:39:47.732Z,0.53
2023-01-17T07:42:14.279Z,0.37
2023-01-17T07:44:44.081Z,0.50
2023-01-17T07:47:11.665Z,0.50
2023-01-17T07:49:42.297Z,0.60
2023-01-17T07:52:09.752Z,0.50
2023-01-17T07:54:36.327Z,0.33
2023-01-17T07:57:03.516Z,0.37
2023-01-17T07:59:30.209Z,0.30
2023-01-17T08:01:56.905Z,0.50
2023-01-17T08:04:31.499Z,0.43
2023-01-17T08:07:00.552Z,0.50
2023-01-17T08:09:27.231Z,0.33
2023-01-17T08:11:53.792Z,0.37
2023-01-17T08:14:20.362Z,0.63
2023-01-17T08:16:46.971Z,0.37
2023-01-17T08:19:15.379Z,0.60
2023-01-17T08:21:41.890Z,0.30
2023-01-17T08:24:14.683Z,0.40
2023-01-17T08:26:41.304Z,0.50
2023-01-17T08:29:10.486Z,1.13
2023-01-17T08:31:37.047Z,0.10
2023-01-17T08:34:04.305Z,0.10
2023-01-17T08:36:31.464Z,1.07
2023-01-17T08:38:58.692Z,0.27
2023-01-17T08:41:27.856Z,0.40
2023-01-17T08:43:56.700Z,1.20
2023-01-17T08:46:32.127Z,0.40
2023-01-17T08:49:00.153Z,0.50
2023-01-17T08:51:27.568Z,0.30
2023-01-17T08:53:57.351Z,0.70
2023-01-17T08:56:24.430Z,0.10
2023-01-17T08:58:51.050Z,0.50
2023-01-17T09:01:17.837Z,0.20
2023-01-17T09:03:45.820Z,0.27
2023-01-17T09:06:15.209Z,0.40
2023-01-17T09:08:47.158Z,0.67
2023-01-17T09:11:17.135Z,0.10
2023-01-17T09:13:44.673Z,0.43
2023-01-17T09:16:11.382Z,0.60
2023-01-17T09:18:38.151Z,0.57
2023-01-17T09:21:18.190Z,0.10
2023-01-17T09:23:45.294Z,0.40
2023-01-17T09:26:29.471Z,0.37
2023-01-17T09:28:56.543Z,0.23
2023-01-17T09:31:24.574Z,0.40
2023-01-17T09:33:52.086Z,0.20
2023-01-17T09:36:19.112Z,0.37
2023-01-17T09:38:45.809Z,0.40
2023-01-17T09:41:21.719Z,0.40
2023-01-17T09:43:55.498Z,0.73
2023-01-17T09:46:29.657Z,0.30
2023-01-17T09:49:07.988Z,0.30
2023-01-17T09:51:34.838Z,0.47
2023-01-17T09:54:04.326Z,0.40
2023-01-17T09:56:49.551Z,0.90
2023-01-17T09:59:37.873Z,0.30
2023-01-17T10:02:20.283Z,0.37
2023-01-17T10:05:16.748Z,0.47
2023-01-17T10:07:49.722Z,0.60
2023-01-17T10:10:39.844Z,0.40
2023-01-17T10:13:34.155Z,0.33
2023-01-17T10:16:21.578Z,0.30
2023-01-17T10:19:09.941Z,0.50
2023-01-17T10:21:51.444Z,0.63
2023-01-17T10:24:36.651Z,0.20
2023-01-17T10:27:09.812Z,0.40
2023-01-17T10:29:37.037Z,0.50
2023-01-17T10:32:03.734Z,0.67
2023-01-17T10:34:41.017Z,0.30
2023-01-17T10:37:41.151Z,0.40
2023-01-17T10:40:27.137Z,0.30
2023-01-17T10:43:02.989Z,0.37
2023-01-17T10:45:43.639Z,1.40
2023-01-17T10:48:24.447Z,0.77
2023-01-17T10:51:12.567Z,0.30
2023-01-17T10:53:54.708Z,1.07
2023-01-17T10:56:29.899Z,0.50
2023-01-17T10:59:24.352Z,0.33
2023-01-17T11:01:51.380Z,0.30
2023-01-17T11:04:21.723Z,0.63
2023-01-17T11:07:09.983Z,0.60
2023-01-17T11:09:42.567Z,0.47
2023-01-17T11:12:27.334Z,0.23
2023-01-17T11:15:10.912Z,0.50
2023-01-17T11:18:05.853Z,0.50
2023-01-17T11:20:39.575Z,0.50
2023-01-17T11:23:15.364Z,0.40
2023-01-17T11:25:51.013Z,0.20
2023-01-17T11:28:26.697Z,0.30
2023-01-17T11:31:07.582Z,0.30
2023-01-17T11:33:48.233Z,0.37
2023-01-17T11:36:41.270Z,0.30
2023-01-17T11:39:19.904Z,0.20
2023-01-17T11:41:51.327Z,0.43
2023-01-17T11:44:32.905Z,0.63
2023-01-17T11:47:11.831Z,0.40
2023-01-17T11:49:40.013Z,0.30
2023-01-17T11:52:23.384Z,0.30
2023-01-17T11:54:53.576Z,0.20
2023-01-17T11:57:27.779Z,0.40
2023-01-17T12:00:12.785Z,0.10
2023-01-17T12:02:57.619Z,0.30
2023-01-17T12:05:40.487Z,0.30
2023-01-17T12:08:13.682Z,0.23
2023-01-17T12:10:43.328Z,0.30
2023-01-17T12:13:52.174Z,0.33
2023-01-17T12:16:39.219Z,0.40
2023-01-17T12:19:32.910Z,0.40
2023-01-17T12:22:05.515Z,0.47
2023-01-17T12:24:56.921Z,0.57
2023-01-17T12:27:34.882Z,0.40
2023-01-17T12:30:34.177Z,0.37
2023-01-17T12:33:19.352Z,0.30
2023-01-17T12:35:53.783Z,0.47
2023-01-17T12:38:32.759Z,0.20
2023-01-17T12:41:06.283Z,0.30
2023-01-17T12:43:46.336Z,0.30
2023-01-17T12:46:34.891Z,0.40
2023-01-17T12:49:37.250Z,0.43
2023-01-17T12:52:16.148Z,0.40
2023-01-17T12:54:51.663Z,0.30
2023-01-17T12:57:29.850Z,0.20
2023-01-17T13:00:14.782Z,0.57
2023-01-17T13:02:54.732Z,0.40
2023-01-17T13:05:32.046Z,0.30
2023-01-17T13:08:39.105Z,0.40
2023-01-17T13:11:15.493Z,0.50
2023-01-17T13:13:43.551Z,0.30
2023-01-17T13:16:16.063Z,0.60
2023-01-17T13:18:48.346Z,0.90
2023-01-17T13:21:32.403Z,0.70
2023-01-17T13:24:08.074Z,0.77
2023-01-17T13:26:44.363Z,0.30
2023-01-17T13:29:25.337Z,0.37
2023-01-17T13:32:10.579Z,0.30
2023-01-17T13:35:12.717Z,0.20
2023-01-17T13:38:08.976Z,0.33
2023-01-17T13:40:50.391Z,0.20
2023-01-17T13:43:26.624Z,0.40
2023-01-17T13:45:56.676Z,0.40
2023-01-17T13:48:23.438Z,0.40
2023-01-17T13:51:04.416Z,0.40
2023-01-17T13:53:34.005Z,0.33
2023-01-17T13:56:23.310Z,0.37
2023-01-17T13:58:57.983Z,0.27
2023-01-17T14:01:26.332Z,0.30
2023-01-17T14:03:53.022Z,0.43
2023-01-17T14:06:33.451Z,0.30
2023-01-17T14:09:17.647Z,0.20
2023-01-17T14:12:10.361Z,0.50
2023-01-17T14:14:39.962Z,0.50
2023-01-17T14:17:28.179Z,0.57
2023-01-17T14:20:21.786Z,0.63
2023-01-17T14:22:53.649Z,0.50
2023-01-17T14:25:25.500Z,0.20
2023-01-17T14:27:57.682Z,0.60
2023-01-17T14:30:33.534Z,0.40
2023-01-17T14:33:08.689Z,0.30
2023-01-17T14:35:49.754Z,0.30
2023-01-17T14:38:23.624Z,0.40
2023-01-17T14:40:58.863Z,0.50
2023-01-17T14:43:28.722Z,0.40
2023-01-17T14:46:01.860Z,0.60
2023-01-17T14:48:29.316Z,0.30
2023-01-17T14:51:00.050Z,0.73
2023-01-17T14:53:31.636Z,0.40
2023-01-17T14:56:12.264Z,0.50
2023-01-17T14:58:48.038Z,0.90
2023-01-17T15:01:22.185Z,0.50
2023-01-17T15:03:57.762Z,1.00
2023-01-17T15:06:39.009Z,0.70
2023-01-17T15:09:12.323Z,0.40
2023-01-17T15:11:39.542Z,0.37
2023-01-17T15:14:09.375Z,0.50
2023-01-17T15:16:38.263Z,0.33
2023-01-17T15:19:18.259Z,0.30
2023-01-17T15:21:48.023Z,0.57
2023-01-17T15:24:25.633Z,0.57
2023-01-17T15:26:56.682Z,0.47
2023-01-17T15:29:31.084Z,0.40
2023-01-17T15:32:04.077Z,0.87
2023-01-17T15:34:43.160Z,0.50
2023-01-17T15:37:32.718Z,0.60
2023-01-17T15:40:29.746Z,0.40
2023-01-17T15:43:00.941Z,0.30
2023-01-17T15:45:30.949Z,0.30
2023-01-17T15:47:59.297Z,0.83
2023-01-17T15:50:33.499Z,0.50
2023-01-17T15:53:05.250Z,0.27
2023-01-17T15:55:36.021Z,0.87
2023-01-17T15:58:04.273Z,0.30
2023-01-17T16:00:38.141Z,0.80
2023-01-17T16:03:24.544Z,0.23
2023-01-17T16:05:53.786Z,0.30
2023-01-17T16:08:33.967Z,0.47
2023-01-17T16:11:05.778Z,0.30
2023-01-17T16:13:42.375Z,0.50
2023-01-17T16:16:24.191Z,0.50
2023-01-17T16:18:59.166Z,0.60
2023-01-17T16:21:28.465Z,0.30
2023-01-17T16:23:55.450Z,0.57
2023-01-17T16:26:25.006Z,0.77
2023-01-17T16:28:55.127Z,0.63
2023-01-17T16:31:21.795Z,0.27
2023-01-17T16:33:51.945Z,0.50
2023-01-17T16:36:20.976Z,0.50
2023-01-17T16:38:49.957Z,0.37
2023-01-17T16:41:16.617Z,0.87
2023-01-17T16:43:43.219Z,0.70
2023-01-17T16:46:12.017Z,0.80
2023-01-17T16:48:38.888Z,0.40
2023-01-17T16:51:07.630Z,0.63
2023-01-17T16:53:35.472Z,0.90
2023-01-17T16:56:13.684Z,1.03
2023-01-17T16:58:41.182Z,0.97
2023-01-17T17:01:15.565Z,1.00
2023-01-17T17:03:46.211Z,1.17
2023-01-17T17:06:13.302Z,0.60
2023-01-17T17:08:40.079Z,0.70
2023-01-17T17:11:16.300Z,1.10
2023-01-17T17:13:45.023Z,1.00
2023-01-17T17:16:16.774Z,1.53
2023-01-17T17:18:45.293Z,0.60
2023-01-17T17:21:13.140Z,0.50
2023-01-17T17:23:39.934Z,0.90
2023-01-17T17:26:06.589Z,0.77
2023-01-17T17:28:33.177Z,0.67
2023-01-17T17:31:05.446Z,0.63
2023-01-17T17:33:33.544Z,0.63
2023-01-17T17:36:05.234Z,0.43
2023-01-17T17:38:35.188Z,0.50
2023-01-17T17:41:09.891Z,0.50
2023-01-17T17:43:41.370Z,0.33
2023-01-17T17:46:09.609Z,0.30
2023-01-17T17:48:36.797Z,0.43
2023-01-17T17:51:04.181Z,0.30
2023-01-17T17:53:31.692Z,0.30
2023-01-17T17:56:06.011Z,0.47
2023-01-17T17:58:34.229Z,0.13
2023-01-17T18:01:05.280Z,0.30
2023-01-17T18:03:32.317Z,0.53
2023-01-17T18:06:07.852Z,0.80
2023-01-17T18:08:35.463Z,1.07
2023-01-17T18:11:05.019Z,0.97
2023-01-17T18:13:32.725Z,0.77
2023-01-17T18:16:05.671Z,1.07
2023-01-17T18:18:33.275Z,0.83
2023-01-17T18:21:12.509Z,0.93
2023-01-17T18:23:41.632Z,0.50
2023-01-17T18:26:17.263Z,0.53
2023-01-17T18:28:43.921Z,0.30
2023-01-17T18:31:10.521Z,0.87
2023-01-17T18:33:38.774Z,0.40
2023-01-17T18:36:10.852Z,0.27
2023-01-17T18:38:42.239Z,0.60
2023-01-17T18:41:12.277Z,0.57
2023-01-17T18:43:39.392Z,0.10
2023-01-17T18:46:07.103Z,0.33
2023-01-17T18:48:33.810Z,0.10
2023-01-17T18:51:02.964Z,0.47
2023-01-17T18:53:32.092Z,0.37
2023-01-17T18:56:00.908Z,0.30
2023-01-17T18:58:32.454Z,0.20
2023-01-17T19:01:14.781Z,0.30
2023-01-17T19:03:56.340Z,0.60
2023-01-17T19:06:28.837Z,0.40
2023-01-17T19:08:55.475Z,1.17
2023-01-17T19:11:28.837Z,0.80
2023-01-17T19:13:56.369Z,0.80
2023-01-17T19:16:25.445Z,0.97
2023-01-17T19:18:52.842Z,2.83
2023-01-17T19:21:27.683Z,7.47
2023-01-17T19:23:59.830Z,5.90
2023-01-17T19:26:30.674Z,3.60
2023-01-17T19:29:14.731Z,1.67
2023-01-17T19:31:43.424Z,1.57
2023-01-17T19:34:11.724Z,1.80
2023-01-17T19:36:39.091Z,2.27
2023-01-17T19:39:09.403Z,2.30
2023-01-17T19:41:38.510Z,1.73
2023-01-17T19:44:09.019Z,1.47
2023-01-17T19:46:36.519Z,1.23
2023-01-17T19:49:09.522Z,0.93
2023-01-17T19:51:36.846Z,0.87
2023-01-17T19:54:04.340Z,0.87
2023-01-17T19:56:34.063Z,2.20
2023-01-17T19:59:02.003Z,0.93
2023-01-17T20:01:32.847Z,0.57
2023-01-17T20:04:01.155Z,1.17
2023-01-17T20:06:32.905Z,1.70
2023-01-17T20:09:00.168Z,0.80
2023-01-17T20:11:29.876Z,0.77
2023-01-17T20:13:58.290Z,1.20
2023-01-17T20:16:26.595Z,1.17
2023-01-17T20:18:53.486Z,1.30
2023-01-17T20:21:25.945Z,0.90
2023-01-17T20:23:53.498Z,1.00
2023-01-17T20:26:36.053Z,0.93
2023-01-17T20:29:10.666Z,0.60
2023-01-17T20:31:38.491Z,0.43
2023-01-17T20:34:05.731Z,0.70
2023-01-17T20:36:33.253Z,0.67
2023-01-17T20:39:03.088Z,0.70
2023-01-17T20:41:38.975Z,0.70
2023-01-17T20:44:07.964Z,0.57
2023-01-17T20:46:40.529Z,0.80
2023-01-17T20:49:15.975Z,0.50
2023-01-17T20:51:44.610Z,0.70
2023-01-17T20:54:14.476Z,0.93
2023-01-17T20:56:45.341Z,1.13
2023-01-17T20:59:17.767Z,0.77
2023-01-17T21:01:45.309Z,0.87
2023-01-17T21:04:13.194Z,1.10
2023-01-17T21:06:41.641Z,0.90
2023-01-17T21:09:12.176Z,1.20
2023-01-17T21:11:38.788Z,1.70
2023-01-17T21:14:06.139Z,0.83
2023-01-17T21:16:34.277Z,0.97
2023-01-17T21:19:01.350Z,0.90
2023-01-17T21:21:29.346Z,1.33
2023-01-17T21:23:58.072Z,1.30
2023-01-17T21:26:26.225Z,0.80
2023-01-17T21:28:53.361Z,1.50
2023-01-17T21:31:24.685Z,1.20
2023-01-17T21:34:06.270Z,1.40
2023-01-17T21:36:38.023Z,2.23
2023-01-17T21:39:07.596Z,1.27
2023-01-17T21:41:37.532Z,1.23
2023-01-17T21:44:10.378Z,1.23
2023-01-17T21:46:41.317Z,1.43
2023-01-17T21:49:12.975Z,1.43
2023-01-17T21:52:04.024Z,1.20
2023-01-17T21:54:56.985Z,2.27
2023-01-17T21:57:42.290Z,1.80
2023-01-17T22:00:14.657Z,1.80
2023-01-17T22:02:41.877Z,2.43
2023-01-17T22:05:09.736Z,1.10
2023-01-17T22:07:36.595Z,1.70
2023-01-17T22:10:03.320Z,2.00
2023-01-17T22:12:29.997Z,1.90
2023-01-17T22:14:56.801Z,2.03
2023-01-17T22:17:23.650Z,1.17
2023-01-17T22:19:50.525Z,2.57
2023-01-17T22:22:17.158Z,2.20
2023-01-17T22:24:43.993Z,2.40
2023-01-17T22:27:10.715Z,2.17
2023-01-17T22:29:38.106Z,1.90
2023-01-17T22:32:04.960Z,0.93
2023-01-17T22:34:31.628Z,1.00
2023-01-17T22:36:58.185Z,1.53
2023-01-17T22:39:24.866Z,1.53
2023-01-17T22:41:51.476Z,1.57
2023-01-17T22:44:18.382Z,1.63
2023-01-17T22:46:45.473Z,1.30
2023-01-17T22:49:13.435Z,1.23
2023-01-17T22:51:40.051Z,0.80
2023-01-17T22:54:06.757Z,1.53
2023-01-17T22:56:33.910Z,1.00
2023-01-17T22:59:01.182Z,1.13
2023-01-17T23:01:32.900Z,1.37
2023-01-17T23:04:02.138Z,1.17
2023-01-17T23:06:34.996Z,1.33
2023-01-17T23:09:08.727Z,1.33
2023-01-17T23:11:43.992Z,1.80
2023-01-17T23:14:28.311Z,1.10
2023-01-17T23:17:16.615Z,1.23
2023-01-17T23:19:48.346Z,1.37
2023-01-17T23:22:32.995Z,0.93
2023-01-17T23:25:06.640Z,1.53
2023-01-17T23:27:56.277Z,1.37
2023-01-17T23:30:30.366Z,0.83
2023-01-17T23:32:59.723Z,0.90
2023-01-17T23:35:32.351Z,1.23
2023-01-17T23:38:17.595Z,1.37
2023-01-17T23:41:04.859Z,0.87
2023-01-17T23:43:32.115Z,1.43
2023-01-17T23:45:58.875Z,1.00
2023-01-17T23:48:28.450Z,0.60
2023-01-17T23:51:08.604Z,0.93
2023-01-17T23:53:37.468Z,0.73
2023-01-17T23:56:07.481Z,0.97
2023-01-17T23:58:34.259Z,1.13
